createdAt,value
2023-02-05T00:01:32.814Z,5.13
2023-02-05T00:04:00.161Z,5.80
2023-02-05T00:06:27.184Z,3.83
2023-02-05T00:08:54.518Z,5.43
2023-02-05T00:11:21.379Z,5.60
2023-02-05T00:13:48.151Z,5.10
2023-02-05T00:16:18.227Z,5.30
2023-02-05T00:18:45.828Z,4.53
2023-02-05T00:21:13.893Z,4.77
2023-02-05T00:23:41.204Z,3.63
2023-02-05T00:26:08.700Z,4.77
2023-02-05T00:28:36.902Z,5.57
2023-02-05T00:31:16.370Z,4.27
2023-02-05T00:33:43.956Z,4.53
2023-02-05T00:36:12.761Z,4.37
2023-02-05T00:38:42.721Z,4.50
2023-02-05T00:41:11.066Z,5.40
2023-02-05T00:43:39.130Z,4.77
2023-02-05T00:46:06.814Z,4.03
2023-02-05T00:48:33.608Z,5.73
2023-02-05T00:51:00.520Z,6.27
2023-02-05T00:53:27.612Z,7.53
2023-02-05T00:55:55.612Z,5.27
2023-02-05T00:58:22.448Z,3.83
2023-02-05T01:00:50.408Z,4.60
2023-02-05T01:03:17.939Z,4.60
2023-02-05T01:05:45.347Z,5.10
2023-02-05T01:08:13.035Z,4.60
2023-02-05T01:10:45.692Z,4.37
2023-02-05T01:13:12.732Z,5.60
2023-02-05T01:15:39.971Z,8.30
2023-02-05T01:18:06.961Z,6.20
2023-02-05T01:20:37.109Z,7.23
2023-02-05T01:23:04.102Z,4.10
2023-02-05T01:25:31.121Z,7.97
2023-02-05T01:27:58.115Z,4.73
2023-02-05T01:30:25.672Z,7.47
2023-02-05T01:32:52.910Z,8.63
2023-02-05T01:35:19.733Z,5.17
2023-02-05T01:37:47.038Z,7.07
2023-02-05T01:40:18.061Z,4.63
2023-02-05T01:42:45.000Z,5.57
2023-02-05T01:45:25.353Z,8.07
2023-02-05T01:48:00.843Z,5.83
2023-02-05T01:50:43.323Z,6.53
2023-02-05T01:53:16.129Z,6.77
2023-02-05T01:55:50.037Z,7.73
2023-02-05T01:58:16.875Z,9.40
2023-02-05T02:00:43.951Z,11.93
2023-02-05T02:03:14.241Z,12.57
2023-02-05T02:05:41.176Z,10.53
2023-02-05T02:08:12.148Z,11.83
2023-02-05T02:10:43.448Z,9.47
2023-02-05T02:13:12.212Z,10.70
2023-02-05T02:15:40.446Z,10.73
2023-02-05T02:18:26.966Z,15.23
2023-02-05T02:20:56.657Z,9.30
2023-02-05T02:23:44.606Z,9.37
2023-02-05T02:26:20.545Z,8.97
2023-02-05T02:28:52.362Z,9.20
2023-02-05T02:31:28.875Z,8.83
2023-02-05T02:34:08.756Z,8.80
2023-02-05T02:36:47.916Z,9.77
2023-02-05T02:39:29.174Z,8.87
2023-02-05T02:42:04.668Z,10.07
2023-02-05T02:44:46.700Z,11.17
2023-02-05T02:47:20.533Z,8.20
2023-02-05T02:49:57.793Z,8.83
2023-02-05T02:52:27.283Z,8.13
2023-02-05T02:54:57.843Z,7.07
2023-02-05T02:57:29.248Z,10.07
2023-02-05T03:00:01.419Z,8.07
2023-02-05T03:02:33.297Z,10.77
2023-02-05T03:05:07.586Z,10.27
2023-02-05T03:07:40.129Z,8.50
2023-02-05T03:10:12.296Z,8.93
2023-02-05T03:12:39.191Z,10.47
2023-02-05T03:15:07.872Z,9.10
2023-02-05T03:17:35.877Z,13.40
2023-02-05T03:20:26.666Z,9.10
2023-02-05T03:22:53.616Z,9.10
2023-02-05T03:25:23.240Z,9.30
2023-02-05T03:27:55.399Z,9.47
2023-02-05T03:30:30.923Z,7.50
2023-02-05T03:33:27.860Z,8.27
2023-02-05T03:36:30.224Z,9.57
2023-02-05T03:39:22.593Z,8.47
2023-02-05T03:42:08.058Z,7.87
2023-02-05T03:45:13.782Z,6.73
2023-02-05T03:47:59.701Z,8.60
2023-02-05T03:50:32.902Z,7.67
2023-02-05T03:53:20.032Z,6.33
2023-02-05T03:56:08.786Z,7.83
2023-02-05T03:58:40.586Z,8.10
2023-02-05T04:01:11.174Z,8.50
2023-02-05T04:03:39.548Z,8.53
2023-02-05T04:06:08.447Z,5.87
2023-02-05T04:08:35.976Z,8.67
2023-02-05T04:11:03.184Z,9.77
2023-02-05T04:13:30.185Z,9.00
2023-02-05T04:15:57.667Z,8.67
2023-02-05T04:18:24.570Z,8.27
2023-02-05T04:20:51.336Z,9.80
2023-02-05T04:23:22.463Z,11.27
2023-02-05T04:25:54.440Z,9.73
2023-02-05T04:28:25.951Z,7.83
2023-02-05T04:30:53.723Z,9.23
2023-02-05T04:33:20.592Z,10.20
2023-02-05T04:35:47.632Z,9.67
2023-02-05T04:38:15.205Z,11.03
2023-02-05T04:40:42.426Z,8.93
2023-02-05T04:43:09.228Z,7.47
2023-02-05T04:45:36.232Z,6.43
2023-02-05T04:48:03.517Z,10.10
2023-02-05T04:50:30.223Z,6.60
2023-02-05T04:52:57.261Z,9.77
2023-02-05T04:55:24.221Z,9.43
2023-02-05T04:57:52.654Z,8.00
2023-02-05T05:00:20.159Z,7.40
2023-02-05T05:02:46.931Z,8.90
2023-02-05T05:05:13.784Z,8.20
2023-02-05T05:07:41.220Z,8.57
2023-02-05T05:10:08.873Z,8.67
2023-02-05T05:12:36.562Z,8.77
2023-02-05T05:15:06.219Z,12.83
2023-02-05T05:17:34.549Z,8.73
2023-02-05T05:20:01.750Z,7.57
2023-02-05T05:22:28.412Z,8.50
2023-02-05T05:24:55.106Z,10.33
2023-02-05T05:27:23.199Z,7.20
2023-02-05T05:29:50.809Z,6.57
2023-02-05T05:32:17.652Z,7.73
2023-02-05T05:34:44.416Z,7.80
2023-02-05T05:37:11.553Z,7.23
2023-02-05T05:39:56.793Z,9.10
2023-02-05T05:42:42.523Z,7.70
2023-02-05T05:45:09.512Z,8.27
2023-02-05T05:47:36.267Z,7.53
2023-02-05T05:50:03.267Z,5.87
2023-02-05T05:52:32.404Z,7.13
2023-02-05T05:54:59.434Z,7.03
2023-02-05T05:57:26.740Z,9.10
2023-02-05T05:59:53.489Z,9.33
2023-02-05T06:02:20.413Z,7.27
2023-02-05T06:04:47.311Z,8.20
2023-02-05T06:07:14.131Z,7.77
2023-02-05T06:09:40.914Z,8.87
2023-02-05T06:12:07.656Z,8.87
2023-02-05T06:14:34.401Z,13.33
2023-02-05T06:17:01.106Z,7.40
2023-02-05T06:19:28.364Z,10.47
2023-02-05T06:21:55.036Z,8.40
2023-02-05T06:24:21.763Z,7.87
2023-02-05T06:26:48.751Z,7.87
2023-02-05T06:29:15.618Z,8.90
2023-02-05T06:31:42.406Z,7.63
2023-02-05T06:34:09.153Z,9.17
2023-02-05T06:36:35.861Z,7.63
2023-02-05T06:39:02.573Z,8.57
2023-02-05T06:41:29.287Z,9.23
2023-02-05T06:43:56.103Z,9.03
2023-02-05T06:46:22.815Z,8.83
2023-02-05T06:48:49.790Z,9.37
2023-02-05T06:51:16.553Z,10.47
2023-02-05T06:53:43.845Z,8.10
2023-02-05T06:56:10.610Z,8.23
2023-02-05T06:58:37.359Z,5.87
2023-02-05T07:01:04.378Z,8.17
2023-02-05T07:03:31.235Z,7.17
2023-02-05T07:06:03.763Z,7.70
2023-02-05T07:08:30.774Z,7.27
2023-02-05T07:10:57.809Z,9.33
2023-02-05T07:13:24.514Z,9.70
2023-02-05T07:15:51.304Z,7.77
2023-02-05T07:18:18.064Z,6.67
2023-02-05T07:20:44.812Z,10.13
2023-02-05T07:23:11.513Z,7.97
2023-02-05T07:25:38.270Z,6.67
2023-02-05T07:28:06.904Z,10.90
2023-02-05T07:30:35.076Z,7.10
2023-02-05T07:33:03.561Z,10.10
2023-02-05T07:35:32.179Z,10.33
2023-02-05T07:37:59.403Z,10.53
2023-02-05T07:40:26.199Z,8.50
2023-02-05T07:42:52.940Z,9.10
2023-02-05T07:45:19.677Z,8.53
2023-02-05T07:47:50.093Z,9.33
2023-02-05T07:50:17.680Z,8.80
2023-02-05T07:52:44.705Z,9.20
2023-02-05T07:55:11.497Z,9.97
2023-02-05T07:57:38.230Z,8.37
2023-02-05T08:00:05.609Z,7.13
2023-02-05T08:02:38.992Z,8.03
2023-02-05T08:05:06.756Z,7.00
2023-02-05T08:07:33.686Z,6.97
2023-02-05T08:10:00.351Z,7.63
2023-02-05T08:12:27.287Z,6.80
2023-02-05T08:14:54.007Z,8.17
2023-02-05T08:17:20.718Z,7.43
2023-02-05T08:19:47.465Z,8.80
2023-02-05T08:22:14.818Z,7.43
2023-02-05T08:24:41.574Z,8.40
2023-02-05T08:27:08.337Z,7.30
2023-02-05T08:29:35.120Z,7.33
2023-02-05T08:32:02.026Z,10.50
2023-02-05T08:34:29.440Z,7.93
2023-02-05T08:36:58.226Z,9.33
2023-02-05T08:39:26.123Z,8.93
2023-02-05T08:41:53.461Z,8.70
2023-02-05T08:44:20.820Z,7.43
2023-02-05T08:46:50.153Z,7.77
2023-02-05T08:49:17.673Z,7.13
2023-02-05T08:51:44.979Z,7.40
2023-02-05T08:54:13.648Z,8.47
2023-02-05T08:56:42.073Z,8.30
2023-02-05T08:59:10.147Z,11.20
2023-02-05T09:01:41.034Z,11.33
2023-02-05T09:04:08.210Z,8.93
2023-02-05T09:06:35.396Z,11.20
2023-02-05T09:09:02.201Z,10.13
2023-02-05T09:11:30.570Z,15.20
2023-02-05T09:13:58.010Z,19.30
2023-02-05T09:16:26.351Z,23.90
2023-02-05T09:18:57.600Z,16.70
2023-02-05T09:21:25.448Z,12.33
2023-02-05T09:23:53.726Z,9.13
2023-02-05T09:26:21.422Z,7.93
2023-02-05T09:28:48.195Z,8.10
2023-02-05T09:31:19.489Z,8.83
2023-02-05T09:33:46.826Z,8.23
2023-02-05T09:36:15.210Z,10.63
2023-02-05T09:38:42.266Z,8.10
2023-02-05T09:41:15.140Z,9.63
2023-02-05T09:44:09.312Z,9.03
2023-02-05T09:47:03.659Z,8.80
2023-02-05T09:49:38.040Z,8.63
2023-02-05T09:52:17.807Z,16.17
2023-02-05T09:54:50.821Z,8.47
2023-02-05T09:57:27.601Z,9.70
2023-02-05T09:59:54.432Z,10.87
2023-02-05T10:02:24.898Z,9.97
2023-02-05T10:04:54.815Z,10.23
2023-02-05T10:07:30.316Z,9.03
2023-02-05T10:10:27.550Z,6.67
2023-02-05T10:13:21.642Z,8.50
2023-02-05T10:16:06.863Z,6.60
2023-02-05T10:18:57.684Z,8.27
2023-02-05T10:22:02.072Z,8.87
2023-02-05T10:24:40.836Z,9.63
2023-02-05T10:27:10.359Z,10.30
2023-02-05T10:29:52.885Z,13.70
2023-02-05T10:32:52.792Z,9.50
2023-02-05T10:35:30.744Z,8.93
2023-02-05T10:37:58.198Z,7.63
2023-02-05T10:40:29.718Z,5.40
2023-02-05T10:43:21.763Z,7.17
2023-02-05T10:45:49.935Z,9.00
2023-02-05T10:48:39.704Z,14.80
2023-02-05T10:51:24.796Z,8.27
2023-02-05T10:53:52.236Z,3.67
2023-02-05T10:56:20.060Z,5.97
2023-02-05T10:59:00.983Z,6.53
2023-02-05T11:01:38.927Z,6.17
2023-02-05T11:04:12.484Z,5.17
2023-02-05T11:06:46.058Z,7.83
2023-02-05T11:09:33.930Z,9.03
2023-02-05T11:12:06.327Z,6.40
2023-02-05T11:14:35.408Z,6.53
2023-02-05T11:17:08.470Z,8.27
2023-02-05T11:19:35.379Z,4.87
2023-02-05T11:22:05.139Z,4.83
2023-02-05T11:24:36.302Z,6.80
2023-02-05T11:27:30.121Z,6.17
2023-02-05T11:30:17.832Z,5.07
2023-02-05T11:32:46.520Z,4.10
2023-02-05T11:35:25.154Z,5.33
2023-02-05T11:38:07.504Z,6.77
2023-02-05T11:40:35.808Z,3.87
2023-02-05T11:43:07.633Z,7.47
2023-02-05T11:45:39.243Z,7.73
2023-02-05T11:48:22.553Z,4.90
2023-02-05T11:50:49.540Z,6.93
2023-02-05T11:53:19.722Z,6.13
2023-02-05T11:55:54.805Z,6.60
2023-02-05T11:58:37.006Z,9.30
2023-02-05T12:01:29.099Z,4.83
2023-02-05T12:04:01.771Z,8.10
2023-02-05T12:06:41.699Z,8.30
2023-02-05T12:09:18.011Z,6.77
2023-02-05T12:12:09.947Z,8.57
2023-02-05T12:14:51.887Z,8.07
2023-02-05T12:17:24.513Z,5.77
2023-02-05T12:20:09.625Z,7.37
2023-02-05T12:22:51.368Z,9.40
2023-02-05T12:25:30.563Z,4.33
2023-02-05T12:28:19.105Z,8.83
2023-02-05T12:31:02.222Z,7.50
2023-02-05T12:33:51.210Z,8.10
2023-02-05T12:36:39.345Z,6.33
2023-02-05T12:39:28.049Z,7.17
2023-02-05T12:42:36.219Z,6.23
2023-02-05T12:45:13.225Z,7.20
2023-02-05T12:47:58.601Z,10.00
2023-02-05T12:50:56.583Z,7.63
2023-02-05T12:53:54.632Z,5.00
2023-02-05T12:56:52.751Z,7.00
2023-02-05T12:59:38.504Z,4.73
2023-02-05T13:02:17.780Z,6.07
2023-02-05T13:05:10.935Z,4.17
2023-02-05T13:07:42.549Z,5.93
2023-02-05T13:10:24.528Z,6.87
2023-02-05T13:13:02.775Z,8.90
2023-02-05T13:15:38.257Z,9.10
2023-02-05T13:18:23.904Z,7.00
2023-02-05T13:21:16.657Z,6.17
2023-02-05T13:24:03.603Z,5.80
2023-02-05T13:27:02.494Z,3.47
2023-02-05T13:29:35.181Z,3.73
2023-02-05T13:32:15.254Z,6.23
2023-02-05T13:34:43.171Z,5.40
2023-02-05T13:37:36.840Z,6.87
2023-02-05T13:40:16.218Z,5.57
2023-02-05T13:42:46.337Z,4.17
2023-02-05T13:45:31.353Z,7.20
2023-02-05T13:47:58.007Z,11.03
2023-02-05T13:50:33.985Z,6.60
2023-02-05T13:53:06.199Z,6.47
2023-02-05T13:55:59.097Z,6.93
2023-02-05T13:58:36.460Z,7.13
2023-02-05T14:01:18.612Z,8.73
2023-02-05T14:03:59.561Z,8.37
2023-02-05T14:06:38.157Z,10.33
2023-02-05T14:09:23.172Z,8.87
2023-02-05T14:11:59.132Z,3.60
2023-02-05T14:14:32.780Z,7.17
2023-02-05T14:17:02.866Z,5.27
2023-02-05T14:19:32.786Z,5.03
2023-02-05T14:22:03.077Z,4.10
2023-02-05T14:24:40.776Z,5.40
2023-02-05T14:27:26.542Z,6.40
2023-02-05T14:29:54.097Z,10.93
2023-02-05T14:32:29.918Z,10.07
2023-02-05T14:35:33.199Z,11.40
2023-02-05T14:38:21.020Z,10.33
2023-02-05T14:41:11.975Z,10.90
2023-02-05T14:43:40.544Z,8.83
2023-02-05T14:46:21.567Z,15.40
2023-02-05T14:48:48.808Z,12.27
2023-02-05T14:51:25.237Z,15.83
2023-02-05T14:53:59.422Z,16.73
2023-02-05T14:56:34.285Z,13.33
2023-02-05T14:59:07.384Z,16.23
2023-02-05T15:01:34.090Z,15.90
2023-02-05T15:04:05.300Z,17.80
2023-02-05T15:06:40.639Z,12.83
2023-02-05T15:09:20.830Z,12.37
2023-02-05T15:12:25.908Z,22.53
2023-02-05T15:14:55.896Z,22.60
2023-02-05T15:17:36.943Z,9.70
2023-02-05T15:20:19.247Z,18.70
2023-02-05T15:23:26.334Z,13.50
2023-02-05T15:26:02.170Z,11.03
2023-02-05T15:28:32.003Z,10.90
2023-02-05T15:31:10.090Z,13.93
2023-02-05T15:33:48.503Z,9.00
2023-02-05T15:36:25.659Z,12.70
2023-02-05T15:39:24.823Z,10.83
2023-02-05T15:41:55.916Z,17.77
2023-02-05T15:44:29.530Z,11.47
2023-02-05T15:46:59.175Z,14.83
2023-02-05T15:49:32.600Z,15.03
2023-02-05T15:52:00.636Z,11.63
2023-02-05T15:54:28.407Z,17.60
2023-02-05T15:56:56.611Z,14.63
2023-02-05T15:59:30.456Z,20.27
2023-02-05T16:02:15.248Z,16.47
2023-02-05T16:04:41.977Z,19.87
2023-02-05T16:07:24.147Z,25.53
2023-02-05T16:09:54.233Z,23.67
2023-02-05T16:12:20.995Z,24.80
2023-02-05T16:14:58.595Z,19.47
2023-02-05T16:17:31.953Z,31.67
2023-02-05T16:20:29.635Z,54.40
2023-02-05T16:22:59.514Z,31.50
2023-02-05T16:25:33.559Z,22.87
2023-02-05T16:28:05.484Z,20.37
2023-02-05T16:30:43.885Z,15.10
2023-02-05T16:33:39.576Z,15.30
2023-02-05T16:36:14.624Z,17.47
2023-02-05T16:38:41.803Z,17.17
2023-02-05T16:41:22.404Z,21.80
2023-02-05T16:43:51.810Z,22.50
2023-02-05T16:46:32.018Z,20.97
2023-02-05T16:49:22.607Z,24.40
2023-02-05T16:51:49.416Z,25.33
2023-02-05T16:54:19.266Z,35.20
2023-02-05T16:56:51.570Z,24.13
2023-02-05T16:59:23.688Z,25.93
2023-02-05T17:01:52.158Z,17.60
2023-02-05T17:04:34.640Z,25.03
2023-02-05T17:07:03.560Z,25.33
2023-02-05T17:09:31.927Z,16.50
2023-02-05T17:12:21.726Z,16.67
2023-02-05T17:14:58.547Z,14.10
2023-02-05T17:17:27.241Z,14.67
2023-02-05T17:20:15.866Z,19.43
2023-02-05T17:23:03.645Z,14.93
2023-02-05T17:25:37.608Z,22.53
2023-02-05T17:28:06.930Z,21.20
2023-02-05T17:30:35.115Z,17.77
2023-02-05T17:33:06.207Z,13.87
2023-02-05T17:35:33.964Z,14.13
2023-02-05T17:38:01.117Z,11.67
2023-02-05T17:40:28.220Z,13.77
2023-02-05T17:42:55.369Z,15.27
2023-02-05T17:45:25.210Z,14.27
2023-02-05T17:47:52.455Z,15.87
2023-02-05T17:50:19.866Z,19.50
2023-02-05T17:52:46.745Z,11.07
2023-02-05T17:55:16.478Z,11.93
2023-02-05T17:57:44.249Z,13.37
2023-02-05T18:00:20.624Z,14.90
2023-02-05T18:02:47.576Z,17.13
2023-02-05T18:05:14.430Z,12.67
2023-02-05T18:07:53.747Z,12.83
2023-02-05T18:10:27.110Z,11.60
2023-02-05T18:12:55.457Z,14.97
2023-02-05T18:15:23.882Z,13.30
2023-02-05T18:17:50.829Z,17.43
2023-02-05T18:20:20.937Z,18.70
2023-02-05T18:22:49.219Z,20.13
2023-02-05T18:25:16.790Z,19.13
2023-02-05T18:27:43.689Z,27.83
2023-02-05T18:30:11.509Z,32.37
2023-02-05T18:32:38.308Z,33.47
2023-02-05T18:35:05.572Z,29.10
2023-02-05T18:37:32.387Z,24.53
2023-02-05T18:39:59.153Z,23.00
2023-02-05T18:42:26.999Z,28.00
2023-02-05T18:44:53.847Z,25.00
2023-02-05T18:47:21.042Z,26.97
2023-02-05T18:49:47.804Z,26.23
2023-02-05T18:52:14.800Z,28.90
2023-02-05T18:54:41.935Z,25.93
2023-02-05T18:57:08.799Z,23.20
2023-02-05T18:59:37.876Z,22.73
2023-02-05T19:02:05.979Z,24.47
2023-02-05T19:04:33.417Z,29.77
2023-02-05T19:07:00.243Z,31.00
2023-02-05T19:09:28.949Z,30.27
2023-02-05T19:11:56.012Z,26.43
2023-02-05T19:14:24.230Z,24.20
2023-02-05T19:16:52.146Z,31.87
2023-02-05T19:19:22.802Z,25.73
2023-02-05T19:22:02.251Z,27.27
2023-02-05T19:24:29.212Z,30.30
2023-02-05T19:26:58.963Z,26.30
2023-02-05T19:29:26.299Z,29.53
2023-02-05T19:31:53.849Z,31.90
2023-02-05T19:34:22.212Z,24.30
2023-02-05T19:36:49.784Z,29.33
2023-02-05T19:39:16.766Z,27.90
2023-02-05T19:41:48.381Z,29.33
2023-02-05T19:44:15.424Z,38.10
2023-02-05T19:46:48.730Z,28.67
2023-02-05T19:49:17.831Z,37.83
2023-02-05T19:51:50.211Z,37.77
2023-02-05T19:54:17.090Z,33.43
2023-02-05T19:56:44.240Z,33.07
2023-02-05T19:59:12.710Z,34.17
2023-02-05T20:01:40.954Z,35.20
2023-02-05T20:04:12.365Z,32.27
2023-02-05T20:06:41.480Z,32.33
2023-02-05T20:09:13.570Z,31.00
2023-02-05T20:11:42.511Z,28.57
2023-02-05T20:14:10.688Z,33.57
2023-02-05T20:16:40.232Z,29.10
2023-02-05T20:19:10.164Z,30.23
2023-02-05T20:21:37.941Z,28.33
2023-02-05T20:24:05.358Z,28.27
2023-02-05T20:26:32.119Z,28.27
2023-02-05T20:29:18.035Z,27.47
2023-02-05T20:31:50.576Z,29.27
2023-02-05T20:34:26.066Z,31.03
2023-02-05T20:36:55.873Z,31.43
2023-02-05T20:39:24.569Z,31.47
2023-02-05T20:41:52.378Z,32.63
2023-02-05T20:44:19.716Z,33.13
2023-02-05T20:46:47.097Z,35.00
2023-02-05T20:49:14.562Z,31.90
2023-02-05T20:51:43.032Z,33.03
2023-02-05T20:54:10.335Z,36.83
2023-02-05T20:56:38.468Z,32.83
2023-02-05T20:59:07.299Z,33.80
2023-02-05T21:01:39.750Z,31.63
2023-02-05T21:04:08.888Z,30.30
2023-02-05T21:06:38.232Z,33.77
2023-02-05T21:09:07.233Z,30.67
2023-02-05T21:11:34.759Z,30.67
2023-02-05T21:14:03.525Z,24.40
2023-02-05T21:16:30.824Z,28.10
2023-02-05T21:18:58.092Z,30.77
2023-02-05T21:21:27.947Z,27.77
2023-02-05T21:23:56.731Z,25.53
2023-02-05T21:26:29.912Z,28.03
2023-02-05T21:29:02.578Z,30.17
2023-02-05T21:31:34.390Z,27.73
2023-02-05T21:34:07.132Z,30.47
2023-02-05T21:36:34.240Z,28.40
2023-02-05T21:39:02.617Z,27.73
2023-02-05T21:41:29.638Z,29.00
2023-02-05T21:43:59.494Z,30.70
2023-02-05T21:46:29.587Z,27.87
2023-02-05T21:48:58.453Z,27.30
2023-02-05T21:51:27.960Z,24.07
2023-02-05T21:53:58.852Z,24.33
2023-02-05T21:56:29.392Z,21.57
2023-02-05T21:58:56.437Z,27.03
2023-02-05T22:01:25.761Z,25.43
2023-02-05T22:03:55.260Z,24.50
2023-02-05T22:06:23.960Z,22.97
2023-02-05T22:08:51.542Z,21.57
2023-02-05T22:11:20.291Z,20.77
2023-02-05T22:13:49.061Z,19.43
2023-02-05T22:16:22.172Z,18.30
2023-02-05T22:18:49.690Z,17.97
2023-02-05T22:21:27.138Z,17.00
2023-02-05T22:23:55.951Z,19.33
2023-02-05T22:26:25.406Z,19.30
2023-02-05T22:28:52.873Z,16.27
2023-02-05T22:31:21.499Z,23.83
2023-02-05T22:33:49.923Z,17.40
2023-02-05T22:36:19.314Z,16.17
2023-02-05T22:38:46.567Z,14.77
2023-02-05T22:41:24.737Z,14.93
2023-02-05T22:43:52.042Z,14.37
2023-02-05T22:46:21.824Z,13.73
2023-02-05T22:48:50.163Z,15.17
2023-02-05T22:51:28.567Z,17.77
2023-02-05T22:53:56.170Z,17.60
2023-02-05T22:56:23.721Z,16.00
2023-02-05T22:58:51.822Z,18.27
2023-02-05T23:01:21.592Z,26.20
2023-02-05T23:03:50.778Z,20.23
2023-02-05T23:06:25.301Z,17.07
2023-02-05T23:09:00.300Z,14.30
2023-02-05T23:11:29.620Z,14.10
2023-02-05T23:13:57.961Z,12.20
2023-02-05T23:16:27.499Z,14.60
2023-02-05T23:18:58.628Z,13.63
2023-02-05T23:21:28.434Z,15.37
2023-02-05T23:23:55.359Z,14.37
2023-02-05T23:26:25.157Z,12.63
2023-02-05T23:28:53.232Z,12.63
2023-02-05T23:31:22.183Z,14.10
2023-02-05T23:33:49.302Z,15.07
2023-02-05T23:36:16.099Z,14.83
2023-02-05T23:38:42.811Z,12.70
2023-02-05T23:41:09.717Z,13.40
2023-02-05T23:43:37.365Z,13.33
2023-02-05T23:46:07.139Z,12.00
2023-02-05T23:48:34.099Z,13.30
2023-02-05T23:51:01.443Z,12.57
2023-02-05T23:53:28.236Z,18.87
2023-02-05T23:55:55.062Z,13.07
2023-02-05T23:58:26.068Z,13.40
